Rose City, Michigan
Current Conditions -  °F | °C
As of 2:37 AM on Saturday 25 Oct 2014 (Local Time) from KHTL Reporting Station
Haze Haze  
Wind Chill: 45°   Ceiling: Unl
Heat Index: 45°   Visibility: 5mi
Dew Point: 44°   Wind: 3mph
Humidity: 97%   Direction: 210°SSW
Pressure: 29.83"   Gusts: NA
Location:  44.42°N, 84.12°W
Report Text: KHTL 250637Z AUTO 21003KT 5SM BR CLR 07/07 A2983 RMK AO2 T00720067
Loading
Personal Weather Stations






























Interactive Weather Map
Tropical Storm Tracking
New forecast layout! Learn more

10-Day Weather Forecast

Advertisements
Track Severe Weather on mobile